Time;durP1;ratioP1;P1;durP2;ratioP2;P2;SDS_P1;SDS_P2;PMS_P1;PMS_P2;Temp;Humidity;BMP_temperature;BMP_pressure;BME280_temperature;BME280_humidity;BME280_pressure;Samples;Min_cycle;Max_cycle;Signal;HPM_P1;HPM_P2
2024/03/10 00:01:03;;;;;;;3.00;0.82;;;;;;;;;;4772347;30;20055;-81
2024/03/10 00:03:33;;;;;;;4.15;0.80;;;;;;;;;;4771921;30;20506;-80
2024/03/10 00:06:03;;;;;;;2.97;0.73;;;;;;;;;;4772059;30;20051;-80
2024/03/10 00:08:33;;;;;;;5.72;0.60;;;;;;;;;;4772392;30;20052;-80
2024/03/10 00:11:04;;;;;;;4.55;0.52;;;;;;;;;;4750916;30;20052;-79
2024/03/10 00:13:35;;;;;;;6.25;0.75;;;;;;;;;;4754290;30;20052;-79
2024/03/10 00:16:05;;;;;;;4.07;0.70;;;;;;;;;;4754639;30;20048;-79
2024/03/10 00:18:37;;;;;;;8.48;0.98;;;;;;;;;;4754212;30;20074;-79
2024/03/10 00:21:09;;;;;;;5.63;1.30;;;;;;;;;;4735524;30;20068;-81
2024/03/10 00:23:42;;;;;;;4.68;0.90;;;;;;;;;;4746475;30;20056;-81
2024/03/10 00:26:13;;;;;;;8.50;1.00;;;;;;;;;;4748449;30;20048;-80
2024/03/10 00:28:44;;;;;;;5.88;0.70;;;;;;;;;;4745827;30;20055;-81
2024/03/10 00:31:15;;;;;;;5.50;0.80;;;;;;;;;;4750288;30;20061;-81
2024/03/10 00:33:46;;;;;;;6.53;0.73;;;;;;;;;;4746643;30;20051;-81
2024/03/10 00:36:18;;;;;;;3.38;0.55;;;;;;;;;;4747418;30;20063;-81
2024/03/10 00:38:48;;;;;;;;;;;;;;;;;;4736058;30;20071;-81
2024/03/10 00:41:18;;;;;;;4.47;0.75;;;;;;;;;;4750380;30;19934;-80
2024/03/10 00:43:49;;;;;;;7.88;0.80;;;;;;;;;;4751427;30;20412;-80
2024/03/10 00:46:20;;;;;;;4.15;0.70;;;;;;;;;;4751264;30;20044;-80
2024/03/10 00:48:52;;;;;;;4.93;1.10;;;;;;;;;;4735126;30;20404;-80
2024/03/10 00:51:23;;;;;;;4.82;0.88;;;;;;;;;;4751121;30;20044;-80
2024/03/10 00:53:53;;;;;;;13.20;1.25;;;;;;;;;;4751264;30;20052;-80
2024/03/10 00:56:23;;;;;;;5.82;0.80;;;;;;;;;;4734973;30;20071;-80
2024/03/10 00:58:55;;;;;;;10.38;0.80;;;;;;;;;;4751275;30;20048;-79
2024/03/10 01:01:25;;;;;;;5.05;0.70;;;;;;;;;;4747385;30;20060;-81
2024/03/10 01:03:56;;;;;;;4.45;0.60;;;;;;;;;;4735643;30;20044;-80
2024/03/10 01:06:27;;;;;;;6.82;0.82;;;;;;;;;;4748708;30;20044;-80
2024/03/10 01:08:59;;;;;;;4.68;0.70;;;;;;;;;;4749500;30;20048;-80
2024/03/10 01:11:30;;;;;;;7.00;0.70;;;;;;;;;;4750363;30;20063;-80
2024/03/10 01:14:00;;;;;;;5.93;0.68;;;;;;;;;;4750911;30;20407;-80
2024/03/10 01:16:32;;;;;;;5.95;0.90;;;;;;;;;;4751102;30;20055;-80
2024/03/10 01:19:02;;;;;;;3.08;0.80;;;;;;;;;;4751004;30;20738;-80
2024/03/10 01:21:32;;;;;;;5.85;0.90;;;;;;;;;;4751014;30;20053;-81
2024/03/10 01:24:03;;;;;;;4.88;0.85;;;;;;;;;;4752058;30;20048;-80
2024/03/10 01:26:37;;;;;;;9.38;1.20;;;;;;;;;;4771070;30;20048;-78
2024/03/10 01:29:08;;;;;;;4.55;1.23;;;;;;;;;;4770649;30;20404;-79
2024/03/10 01:31:38;;;;;;;5.90;1.10;;;;;;;;;;4770685;30;20488;-79
2024/03/10 01:34:12;;;;;;;8.80;0.77;;;;;;;;;;4770603;30;20063;-79
2024/03/10 01:36:42;;;;;;;2.15;0.80;;;;;;;;;;4770812;30;20052;-80
2024/03/10 01:39:13;;;;;;;8.45;1.02;;;;;;;;;;4770798;30;20389;-81
2024/03/10 01:41:45;;;;;;;3.70;0.70;;;;;;;;;;4770773;30;20055;-79
2024/03/10 01:44:15;;;;;;;7.13;0.90;;;;;;;;;;4771234;30;20392;-80
2024/03/10 01:46:45;;;;;;;8.75;1.40;;;;;;;;;;4770580;30;20492;-79
2024/03/10 01:49:17;;;;;;;17.13;2.05;;;;;;;;;;4770201;30;20062;-80
2024/03/10 01:51:49;;;;;;;4.32;0.93;;;;;;;;;;4770465;30;20365;-79
2024/03/10 01:54:26;;;;;;;9.40;1.33;;;;;;;;;;4770428;30;20483;-80
2024/03/10 01:56:56;;;;;;;7.38;0.80;;;;;;;;;;4770506;30;20052;-79
2024/03/10 01:59:27;;;;;;;6.20;0.77;;;;;;;;;;4770259;30;20058;-80
2024/03/10 02:01:59;;;;;;;6.55;0.95;;;;;;;;;;4750391;30;20056;-79
2024/03/10 02:04:31;;;;;;;5.93;0.73;;;;;;;;;;4750663;30;20075;-80
2024/03/10 02:07:03;;;;;;;5.57;0.85;;;;;;;;;;4750469;30;20071;-80
2024/03/10 02:09:35;;;;;;;3.65;0.70;;;;;;;;;;4750531;30;20052;-80
2024/03/10 02:12:06;;;;;;;6.97;1.30;;;;;;;;;;4736180;30;20052;-80
2024/03/10 02:14:40;;;;;;;6.65;1.00;;;;;;;;;;4750216;30;20068;-80
2024/03/10 02:17:14;;;;;;;9.15;1.45;;;;;;;;;;4750399;30;20227;-80
2024/03/10 02:19:45;;;;;;;7.40;1.83;;;;;;;;;;4750176;30;20073;-80
2024/03/10 02:22:16;;;;;;;7.43;1.35;;;;;;;;;;4750334;30;20181;-80
2024/03/10 02:24:48;;;;;;;8.55;1.67;;;;;;;;;;4736162;30;20511;-80
2024/03/10 02:27:21;;;;;;;12.60;2.38;;;;;;;;;;4750457;30;20056;-79
2024/03/10 02:49:33;;;;;;;8.43;2.03;;;;;;;;;;4769561;30;20064;-78
2024/03/10 02:52:03;;;;;;;4.13;1.85;;;;;;;;;;4770200;30;20052;-79
2024/03/10 02:54:34;;;;;;;5.25;1.70;;;;;;;;;;4769313;30;20055;-79
2024/03/10 02:57:04;;;;;;;4.63;1.75;;;;;;;;;;4770009;30;20051;-79
2024/03/10 02:59:34;;;;;;;7.72;1.92;;;;;;;;;;4770053;30;20056;-79
2024/03/10 03:02:06;;;;;;;8.55;2.13;;;;;;;;;;4768814;30;20518;-79
2024/03/10 03:04:38;;;;;;;26.27;3.35;;;;;;;;;;4772361;30;20056;-80
2024/03/10 03:07:09;;;;;;;44.20;5.60;;;;;;;;;;4773094;30;20369;-80
2024/03/10 03:09:40;;;;;;;29.25;5.28;;;;;;;;;;4773021;30;20048;-80
2024/03/10 03:12:11;;;;;;;35.88;7.60;;;;;;;;;;4757161;30;20494;-81
2024/03/10 03:14:41;;;;;;;24.02;6.30;;;;;;;;;;4772731;30;20491;-80
2024/03/10 03:17:12;;;;;;;27.98;7.63;;;;;;;;;;4772844;30;20047;-81
2024/03/10 03:19:44;;;;;;;35.65;7.85;;;;;;;;;;4757518;30;20044;-81
2024/03/10 03:22:15;;;;;;;30.67;7.18;;;;;;;;;;4773368;30;20357;-81
2024/03/10 03:24:45;;;;;;;33.50;8.25;;;;;;;;;;4773296;30;20048;-81
2024/03/10 03:27:15;;;;;;;27.45;6.15;;;;;;;;;;4772757;30;20488;-81
2024/03/10 03:29:45;;;;;;;33.00;7.45;;;;;;;;;;4772853;30;20056;-81
2024/03/10 03:32:15;;;;;;;36.65;7.78;;;;;;;;;;4771519;30;20081;-81
2024/03/10 03:34:47;;;;;;;42.88;7.85;;;;;;;;;;4773323;30;20052;-81
2024/03/10 03:37:18;;;;;;;25.13;6.40;;;;;;;;;;4773683;30;20048;-81
2024/03/10 03:39:48;;;;;;;23.95;6.63;;;;;;;;;;4773717;30;20060;-82
2024/03/10 03:42:19;;;;;;;30.05;6.82;;;;;;;;;;4772048;30;20048;-79
2024/03/10 03:44:49;;;;;;;25.75;6.43;;;;;;;;;;4775591;30;20048;-79
2024/03/10 03:47:20;;;;;;;25.13;5.05;;;;;;;;;;4777051;30;20079;-79
2024/03/10 03:49:50;;;;;;;12.98;4.15;;;;;;;;;;4775386;30;20062;-79
2024/03/10 03:52:20;;;;;;;20.23;5.75;;;;;;;;;;4778188;30;20048;-79
2024/03/10 03:54:54;;;;;;;36.83;8.88;;;;;;;;;;4754687;30;20056;-81
2024/03/10 03:57:25;;;;;;;39.05;8.25;;;;;;;;;;4752459;30;20052;-80
2024/03/10 03:59:56;;;;;;;30.65;5.68;;;;;;;;;;4752416;30;20488;-81
2024/03/10 04:02:27;;;;;;;19.50;5.38;;;;;;;;;;4752627;30;20381;-80
2024/03/10 04:04:58;;;;;;;29.40;7.45;;;;;;;;;;4753507;30;20056;-80
2024/03/10 04:07:29;;;;;;;19.73;5.40;;;;;;;;;;4738840;30;20381;-80
2024/03/10 04:10:00;;;;;;;42.28;8.25;;;;;;;;;;4754523;30;20059;-79
2024/03/10 04:12:30;;;;;;;49.22;8.93;;;;;;;;;;4754402;30;20056;-79
2024/03/10 04:15:01;;;;;;;29.02;7.53;;;;;;;;;;4754015;30;20519;-79
2024/03/10 04:17:33;;;;;;;47.45;10.52;;;;;;;;;;4753907;30;20044;-79
2024/03/10 04:20:12;;;;;;;52.03;11.48;;;;;;;;;;4754296;30;20052;-80
2024/03/10 04:22:42;;;;;;;50.42;10.73;;;;;;;;;;4754020;30;20052;-79
2024/03/10 04:25:12;;;;;;;46.70;10.20;;;;;;;;;;4753604;30;20056;-80
2024/03/10 04:27:43;;;;;;;42.95;10.00;;;;;;;;;;4753672;30;20056;-80
2024/03/10 04:30:16;;;;;;;47.63;10.32;;;;;;;;;;4754100;30;20501;-80
2024/03/10 04:32:46;;;;;;;39.58;10.98;;;;;;;;;;4754486;30;20048;-80
2024/03/10 04:35:19;;;;;;;48.42;11.15;;;;;;;;;;4753277;30;20055;-80
2024/03/10 04:37:49;;;;;;;53.45;12.05;;;;;;;;;;4750745;30;20420;-80
2024/03/10 04:40:20;;;;;;;53.92;11.35;;;;;;;;;;4752828;30;20048;-80
2024/03/10 04:42:50;;;;;;;53.72;12.23;;;;;;;;;;4750797;30;20048;-81
2024/03/10 04:45:20;;;;;;;51.35;12.15;;;;;;;;;;4752790;30;20420;-80
2024/03/10 04:47:50;;;;;;;51.00;11.90;;;;;;;;;;4750863;30;20056;-78
2024/03/10 04:50:21;;;;;;;62.22;11.85;;;;;;;;;;4752949;30;20419;-79
2024/03/10 04:52:52;;;;;;;51.58;11.52;;;;;;;;;;4746752;30;20052;-79
2024/03/10 04:55:22;;;;;;;48.65;10.60;;;;;;;;;;4753766;30;20048;-80
2024/03/10 04:57:55;;;;;;;58.03;11.30;;;;;;;;;;4753633;30;20063;-79
2024/03/10 05:00:26;;;;;;;48.90;10.23;;;;;;;;;;4751761;30;20056;-79
2024/03/10 05:02:57;;;;;;;46.72;9.98;;;;;;;;;;4751171;30;20059;-80
2024/03/10 05:05:27;;;;;;;45.10;10.45;;;;;;;;;;4752293;30;20059;-80
2024/03/10 05:07:59;;;;;;;52.65;11.05;;;;;;;;;;4753171;30;20044;-79
2024/03/10 05:10:30;;;;;;;41.28;10.43;;;;;;;;;;4752906;30;20056;-80
2024/03/10 05:13:01;;;;;;;44.95;11.20;;;;;;;;;;4753664;30;20063;-80
2024/03/10 05:15:32;;;;;;;44.15;10.48;;;;;;;;;;4741550;30;20051;-79
2024/03/10 05:18:02;;;;;;;44.47;10.90;;;;;;;;;;4743429;30;20041;-79
2024/03/10 05:20:32;;;;;;;42.78;10.98;;;;;;;;;;4752328;30;20056;-80
2024/03/10 05:23:03;;;;;;;39.58;9.95;;;;;;;;;;4745926;30;20048;-80
2024/03/10 05:25:33;;;;;;;43.75;11.25;;;;;;;;;;4745356;30;20056;-80
2024/03/10 05:28:04;;;;;;;46.60;11.27;;;;;;;;;;4752458;30;20059;-80
2024/03/10 05:30:34;;;;;;;52.05;11.07;;;;;;;;;;4745773;30;20056;-80
2024/03/10 05:33:07;;;;;;;51.17;11.05;;;;;;;;;;4753265;30;20051;-80
2024/03/10 05:35:38;;;;;;;45.35;11.23;;;;;;;;;;4752963;30;20052;-80
2024/03/10 05:38:09;;;;;;;45.80;10.65;;;;;;;;;;4752744;30;20049;-80
2024/03/10 05:40:39;;;;;;;44.20;10.82;;;;;;;;;;4753269;30;20060;-80
2024/03/10 05:43:09;;;;;;;39.63;10.38;;;;;;;;;;4751404;30;20048;-80
2024/03/10 05:45:40;;;;;;;40.67;10.10;;;;;;;;;;4752482;30;20048;-80
2024/03/10 05:48:11;;;;;;;35.17;8.90;;;;;;;;;;4752444;30;20056;-80
2024/03/10 05:50:41;;;;;;;35.95;9.00;;;;;;;;;;4752763;30;20382;-80
2024/03/10 05:53:12;;;;;;;38.40;9.38;;;;;;;;;;4752665;30;20047;-80
2024/03/10 05:55:42;;;;;;;42.67;8.57;;;;;;;;;;4752632;30;20389;-79
2024/03/10 05:58:14;;;;;;;31.13;8.90;;;;;;;;;;4752967;30;20497;-80
2024/03/10 06:00:45;;;;;;;33.78;8.15;;;;;;;;;;4752572;30;20059;-80
2024/03/10 06:03:15;;;;;;;33.25;8.23;;;;;;;;;;4752928;30;20053;-79
2024/03/10 06:05:47;;;;;;;35.13;8.40;;;;;;;;;;4752469;30;20059;-80
2024/03/10 06:08:20;;;;;;;28.65;7.07;;;;;;;;;;4752841;30;20052;-80
2024/03/10 06:10:51;;;;;;;27.80;7.25;;;;;;;;;;4752974;30;20052;-80
2024/03/10 06:13:21;;;;;;;31.38;7.80;;;;;;;;;;4752577;30;20063;-80
2024/03/10 06:15:52;;;;;;;29.15;7.65;;;;;;;;;;4736308;30;20060;-80
2024/03/10 06:18:24;;;;;;;26.75;7.45;;;;;;;;;;4752438;30;20063;-80
2024/03/10 06:26:31;;;;;;;31.05;7.55;;;;;;;;;;4752623;30;20056;-79
2024/03/10 06:29:02;;;;;;;36.67;8.38;;;;;;;;;;4752737;30;20392;-81
2024/03/10 06:31:32;;;;;;;27.88;7.18;;;;;;;;;;4752124;30;20055;-79
2024/03/10 06:34:02;;;;;;;25.13;6.88;;;;;;;;;;4752401;30;20052;-81
2024/03/10 06:36:34;;;;;;;29.63;6.47;;;;;;;;;;4752362;30;20063;-81
2024/03/10 06:39:05;;;;;;;23.85;6.40;;;;;;;;;;4753423;30;20044;-79
2024/03/10 06:41:35;;;;;;;20.77;6.40;;;;;;;;;;4756200;30;20056;-80
2024/03/10 06:44:06;;;;;;;25.02;6.15;;;;;;;;;;4756270;30;20057;-80
2024/03/10 06:46:36;;;;;;;26.15;6.68;;;;;;;;;;4756195;30;20488;-80
2024/03/10 06:49:06;;;;;;;27.60;6.95;;;;;;;;;;4755709;30;20060;-80
2024/03/10 06:51:38;;;;;;;20.75;6.53;;;;;;;;;;4756023;30;20056;-80
2024/03/10 06:54:08;;;;;;;23.25;6.68;;;;;;;;;;4739097;30;20083;-80
2024/03/10 06:56:39;;;;;;;23.73;6.88;;;;;;;;;;4755880;30;20056;-80
2024/03/10 06:59:09;;;;;;;28.42;8.00;;;;;;;;;;4755998;30;20040;-81
2024/03/10 07:01:46;;;;;;;33.58;7.95;;;;;;;;;;4755516;30;20059;-82
2024/03/10 07:04:16;;;;;;;28.98;7.63;;;;;;;;;;4756053;30;20045;-81
2024/03/10 07:06:49;;;;;;;28.55;8.50;;;;;;;;;;4755578;30;20056;-80
2024/03/10 07:09:25;;;;;;;29.10;7.43;;;;;;;;;;4755497;30;20056;-81
2024/03/10 07:11:55;;;;;;;23.00;6.40;;;;;;;;;;4755181;30;20056;-81
2024/03/10 07:14:27;;;;;;;21.85;6.15;;;;;;;;;;4755538;30;20048;-81
2024/03/10 07:16:57;;;;;;;18.23;5.22;;;;;;;;;;4755593;30;20195;-80
2024/03/10 07:19:27;;;;;;;20.92;6.28;;;;;;;;;;4755104;30;20381;-80
2024/03/10 07:21:57;;;;;;;14.93;4.47;;;;;;;;;;4755240;30;20052;-80
2024/03/10 07:24:27;;;;;;;18.80;5.28;;;;;;;;;;4754676;30;20647;-80
2024/03/10 07:26:57;;;;;;;16.00;4.93;;;;;;;;;;4753674;30;20084;-81
2024/03/10 07:29:27;;;;;;;18.50;5.47;;;;;;;;;;4754820;30;20060;-80
2024/03/10 07:31:58;;;;;;;13.77;4.70;;;;;;;;;;4755084;30;20052;-81
2024/03/10 07:34:28;;;;;;;17.58;4.88;;;;;;;;;;4754964;30;20544;-81
2024/03/10 07:37:00;;;;;;;18.30;5.10;;;;;;;;;;4755100;30;20488;-81
2024/03/10 07:39:30;;;;;;;16.73;4.25;;;;;;;;;;4755105;30;20052;-81
2024/03/10 07:42:00;;;;;;;15.43;4.93;;;;;;;;;;4754713;30;20045;-81
2024/03/10 07:44:31;;;;;;;15.68;4.97;;;;;;;;;;4753544;30;20060;-81
2024/03/10 07:47:02;;;;;;;13.70;4.38;;;;;;;;;;4755163;30;20052;-81
2024/03/10 07:49:33;;;;;;;14.95;4.50;;;;;;;;;;4753053;30;20060;-81
2024/03/10 07:52:04;;;;;;;12.52;3.58;;;;;;;;;;4754590;30;20413;-80
2024/03/10 07:54:34;;;;;;;;;;;;;;;;;;4755153;30;20060;-81
2024/03/10 07:57:05;;;;;;;7.30;2.42;;;;;;;;;;4754781;30;20301;-81
2024/03/10 07:59:35;;;;;;;5.32;2.47;;;;;;;;;;4755353;30;20048;-80
2024/03/10 08:02:06;;;;;;;6.90;2.53;;;;;;;;;;4748540;30;20535;-80
2024/03/10 08:04:37;;;;;;;6.97;2.45;;;;;;;;;;4754300;30;20056;-81
2024/03/10 08:07:07;;;;;;;6.05;2.72;;;;;;;;;;4754874;30;20055;-82
2024/03/10 08:09:37;;;;;;;5.80;2.55;;;;;;;;;;4754848;30;20052;-81
2024/03/10 08:12:08;;;;;;;8.40;2.92;;;;;;;;;;4754216;30;20521;-81
2024/03/10 08:14:41;;;;;;;12.25;3.53;;;;;;;;;;4754701;30;20602;-81
2024/03/10 08:17:12;;;;;;;9.52;2.75;;;;;;;;;;4754327;30;20048;-80
2024/03/10 08:19:42;;;;;;;6.75;2.47;;;;;;;;;;4754208;30;20059;-81
2024/03/10 08:22:12;;;;;;;7.10;2.78;;;;;;;;;;4737962;30;20073;-81
2024/03/10 08:24:44;;;;;;;5.70;2.53;;;;;;;;;;4753878;30;20397;-81
2024/03/10 08:27:16;;;;;;;6.40;2.88;;;;;;;;;;4753413;30;20051;-82
2024/03/10 08:29:47;;;;;;;5.85;2.40;;;;;;;;;;4753688;30;20040;-81
2024/03/10 08:32:19;;;;;;;5.60;2.50;;;;;;;;;;4753411;30;20060;-81
2024/03/10 08:34:50;;;;;;;6.03;2.75;;;;;;;;;;4754000;30;20053;-81
2024/03/10 08:37:21;;;;;;;6.28;2.78;;;;;;;;;;4753932;30;20507;-81
2024/03/10 08:39:52;;;;;;;9.75;3.13;;;;;;;;;;4754319;30;20464;-81
2024/03/10 08:42:24;;;;;;;18.15;3.80;;;;;;;;;;4753084;30;20052;-81
2024/03/10 08:44:55;;;;;;;10.88;3.25;;;;;;;;;;4754092;30;20059;-82
2024/03/10 08:47:25;;;;;;;4.95;2.13;;;;;;;;;;4738674;30;20060;-82
2024/03/10 08:49:57;;;;;;;7.13;2.40;;;;;;;;;;4753383;30;20067;-83
2024/03/10 08:52:28;;;;;;;13.38;3.05;;;;;;;;;;4754071;30;20048;-82
2024/03/10 08:54:59;;;;;;;12.40;3.60;;;;;;;;;;4754035;30;20055;-82
2024/03/10 08:57:30;;;;;;;19.13;4.38;;;;;;;;;;4753964;30;20056;-80
2024/03/10 09:00:00;;;;;;;20.52;5.75;;;;;;;;;;4753399;30;20052;-82
2024/03/10 09:02:31;;;;;;;26.60;5.72;;;;;;;;;;4752035;30;20055;-83
2024/03/10 09:05:01;;;;;;;33.30;6.03;;;;;;;;;;4753319;30;20055;-83
2024/03/10 09:07:31;;;;;;;21.10;5.32;;;;;;;;;;4754042;30;20056;-83
2024/03/10 09:10:02;;;;;;;21.10;4.93;;;;;;;;;;4753677;30;20122;-83
2024/03/10 09:12:33;;;;;;;17.67;5.30;;;;;;;;;;4753404;30;20048;-83
2024/03/10 09:15:03;;;;;;;17.67;4.88;;;;;;;;;;4753708;30;20400;-81
2024/03/10 09:17:33;;;;;;;16.58;4.00;;;;;;;;;;4753510;30;20048;-83
2024/03/10 09:20:04;;;;;;;12.73;4.38;;;;;;;;;;4752295;30;20063;-82
2024/03/10 09:22:35;;;;;;;29.60;5.25;;;;;;;;;;4753701;30;20503;-81
2024/03/10 09:25:12;;;;;;;23.77;5.65;;;;;;;;;;4753220;30;20071;-82
2024/03/10 09:27:43;;;;;;;33.42;6.78;;;;;;;;;;4753436;30;20053;-82
2024/03/10 09:30:17;;;;;;;29.42;7.10;;;;;;;;;;4753272;30;20068;-82
2024/03/10 09:32:54;;;;;;;33.65;6.75;;;;;;;;;;4752558;30;20055;-82
2024/03/10 09:35:28;;;;;;;31.05;7.28;;;;;;;;;;4753083;30;20055;-82
2024/03/10 09:38:04;;;;;;;36.78;6.95;;;;;;;;;;4752417;30;20147;-80
2024/03/10 09:40:35;;;;;;;32.50;6.97;;;;;;;;;;4753339;30;20056;-81
2024/03/10 09:43:11;;;;;;;27.00;6.00;;;;;;;;;;4752187;30;20067;-81
2024/03/10 09:45:51;;;;;;;35.88;6.53;;;;;;;;;;4753039;30;20055;-80
2024/03/10 09:48:23;;;;;;;36.08;6.47;;;;;;;;;;4752941;30;20063;-80
2024/03/10 09:50:56;;;;;;;33.03;6.43;;;;;;;;;;4737391;30;20060;-80
2024/03/10 09:53:27;;;;;;;;;;;;;;;;;;4754140;30;20370;-81
2024/03/10 09:55:58;;;;;;;17.33;4.18;;;;;;;;;;4753186;30;20306;-80
2024/03/10 09:58:56;;;;;;;15.68;3.75;;;;;;;;;;4753232;30;20389;-80
2024/03/10 10:01:29;;;;;;;12.82;2.60;;;;;;;;;;4752687;30;20060;-80
2024/03/10 10:04:01;;;;;;;6.15;1.85;;;;;;;;;;4753183;30;20060;-80
2024/03/10 10:06:32;;;;;;;6.07;1.60;;;;;;;;;;4752943;30;20511;-80
2024/03/10 10:09:07;;;;;;;6.53;2.03;;;;;;;;;;4752872;30;20504;-80
2024/03/10 10:11:41;;;;;;;4.65;1.85;;;;;;;;;;4757740;30;20059;-79
2024/03/10 10:14:15;;;;;;;7.82;2.13;;;;;;;;;;4764303;30;20054;-79
2024/03/10 10:16:56;;;;;;;5.32;2.05;;;;;;;;;;4763892;30;20055;-78
2024/03/10 10:19:29;;;;;;;8.90;2.22;;;;;;;;;;4763462;30;20168;-79
2024/03/10 10:22:05;;;;;;;7.53;2.17;;;;;;;;;;4739886;30;20067;-79
2024/03/10 10:24:36;;;;;;;6.97;2.22;;;;;;;;;;4739089;30;20056;-81
2024/03/10 10:27:06;;;;;;;6.70;1.90;;;;;;;;;;4753739;30;20532;-81
2024/03/10 10:29:49;;;;;;;6.35;1.90;;;;;;;;;;4749154;30;20056;-80
2024/03/10 10:32:22;;;;;;;4.20;1.55;;;;;;;;;;4733234;30;20063;-81
2024/03/10 10:34:53;;;;;;;5.30;1.35;;;;;;;;;;4732507;30;20049;-82
2024/03/10 10:37:26;;;;;;;11.02;1.73;;;;;;;;;;4744116;30;20051;-81
2024/03/10 10:39:56;;;;;;;3.88;1.33;;;;;;;;;;4735318;30;20063;-82
2024/03/10 10:42:27;;;;;;;6.55;1.40;;;;;;;;;;4741777;30;20517;-81
2024/03/10 10:45:04;;;;;;;3.60;1.48;;;;;;;;;;4718585;30;20048;-82
2024/03/10 10:47:36;;;;;;;3.00;1.30;;;;;;;;;;4733831;30;20064;-82
2024/03/10 10:50:14;;;;;;;2.72;1.35;;;;;;;;;;4734135;30;20060;-82
2024/03/10 10:52:45;;;;;;;3.10;1.17;;;;;;;;;;4733585;30;20045;-82
2024/03/10 10:55:16;;;;;;;2.33;1.33;;;;;;;;;;4734069;30;20425;-82
2024/03/10 10:57:47;;;;;;;1.80;0.93;;;;;;;;;;4733535;30;20053;-80
2024/03/10 11:00:27;;;;;;;3.17;1.20;;;;;;;;;;4733561;30;20057;-80
2024/03/10 11:03:36;;;;;;;4.13;1.23;;;;;;;;;;4733385;30;20063;-81
2024/03/10 11:06:03;;;;;;;2.85;1.20;;;;;;;;;;4733709;30;20056;-80
2024/03/10 11:08:36;;;;;;;4.45;1.13;;;;;;;;;;4733305;30;20060;-81
2024/03/10 11:11:14;;;;;;;4.72;1.30;;;;;;;;;;4733707;30;20055;-81
2024/03/10 11:13:46;;;;;;;2.35;1.23;;;;;;;;;;4733210;30;20045;-80
2024/03/10 11:16:25;;;;;;;4.13;1.30;;;;;;;;;;4732198;30;20067;-81
2024/03/10 11:19:27;;;;;;;2.53;1.10;;;;;;;;;;4733426;30;20056;-80
2024/03/10 11:21:57;;;;;;;4.93;1.33;;;;;;;;;;4733343;30;20041;-80
2024/03/10 11:24:27;;;;;;;4.38;1.60;;;;;;;;;;4733656;30;20467;-80
2024/03/10 11:27:12;;;;;;;3.47;1.10;;;;;;;;;;4736768;30;20064;-80
2024/03/10 11:29:42;;;;;;;1.80;0.90;;;;;;;;;;4736257;30;20061;-80
2024/03/10 11:32:33;;;;;;;3.85;1.10;;;;;;;;;;4735299;30;20056;-80
2024/03/10 11:35:08;;;;;;;2.50;0.98;;;;;;;;;;4736443;30;20053;-79
2024/03/10 11:37:39;;;;;;;1.95;1.10;;;;;;;;;;4729936;30;20049;-80
2024/03/10 11:40:15;;;;;;;1.95;0.90;;;;;;;;;;4736452;30;20508;-80
2024/03/10 11:42:47;;;;;;;1.92;0.98;;;;;;;;;;4740922;30;20056;-80
2024/03/10 11:45:19;;;;;;;2.45;1.20;;;;;;;;;;4754841;30;20052;-80
2024/03/10 11:47:49;;;;;;;2.72;1.30;;;;;;;;;;4754986;30;20342;-80
2024/03/10 11:50:19;;;;;;;2.85;1.00;;;;;;;;;;4754662;30;20056;-80
2024/03/10 11:52:49;;;;;;;1.50;1.00;;;;;;;;;;4755004;30;20075;-80
2024/03/10 11:55:21;;;;;;;1.70;1.00;;;;;;;;;;4754501;30;20055;-80
2024/03/10 11:57:54;;;;;;;;;;;;;;;;;;4755003;30;20511;-81
2024/03/10 12:00:24;;;;;;;3.65;1.25;;;;;;;;;;4755042;30;19926;-80
2024/03/10 12:02:57;;;;;;;3.47;1.30;;;;;;;;;;4754735;30;20060;-80
2024/03/10 12:05:28;;;;;;;1.23;0.77;;;;;;;;;;4754530;30;20072;-81
2024/03/10 12:08:00;;;;;;;3.05;1.50;;;;;;;;;;4754342;30;20409;-81
2024/03/10 12:10:32;;;;;;;;;;;;;;;;;;4755235;30;20044;-80
2024/03/10 12:13:02;;;;;;;2.33;1.17;;;;;;;;;;4754392;30;19930;-80
2024/03/10 12:15:37;;;;;;;1.30;0.80;;;;;;;;;;4754292;30;20048;-81
2024/03/10 12:18:08;;;;;;;7.82;1.13;;;;;;;;;;4738976;30;20065;-81
2024/03/10 12:20:38;;;;;;;2.38;0.90;;;;;;;;;;4754548;30;20067;-81
2024/03/10 12:23:10;;;;;;;2.53;1.27;;;;;;;;;;4754173;30;20374;-80
2024/03/10 12:25:44;;;;;;;3.00;1.05;;;;;;;;;;4754516;30;20052;-81
2024/03/10 12:28:15;;;;;;;2.60;0.90;;;;;;;;;;4754099;30;20048;-81
2024/03/10 12:30:46;;;;;;;3.78;0.80;;;;;;;;;;4754108;30;20048;-81
2024/03/10 12:33:16;;;;;;;1.20;0.80;;;;;;;;;;4754190;30;20060;-81
2024/03/10 12:35:46;;;;;;;2.13;0.75;;;;;;;;;;4749182;30;20518;-81
2024/03/10 12:38:16;;;;;;;2.20;1.20;;;;;;;;;;4752113;30;20499;-82
2024/03/10 12:40:47;;;;;;;1.75;1.10;;;;;;;;;;4754104;30;20507;-82
2024/03/10 12:43:18;;;;;;;2.38;0.77;;;;;;;;;;4753934;30;20056;-81
2024/03/10 12:45:48;;;;;;;2.17;0.77;;;;;;;;;;4754076;30;20052;-81
2024/03/10 12:48:19;;;;;;;1.30;0.90;;;;;;;;;;4738350;30;20067;-83
2024/03/10 12:50:49;;;;;;;1.77;0.82;;;;;;;;;;4754019;30;20063;-84
2024/03/10 12:53:21;;;;;;;1.60;0.93;;;;;;;;;;4753859;30;20079;-82
2024/03/10 12:55:52;;;;;;;5.78;1.48;;;;;;;;;;4753916;30;20401;-82
2024/03/10 12:58:22;;;;;;;1.83;1.00;;;;;;;;;;4753957;30;20052;-85
2024/03/10 13:00:54;;;;;;;1.02;0.60;;;;;;;;;;4753851;30;20082;-82
2024/03/10 13:03:24;;;;;;;2.03;1.00;;;;;;;;;;4753607;30;20067;-83
2024/03/10 13:05:55;;;;;;;2.88;1.48;;;;;;;;;;4754328;30;20055;-81
2024/03/10 13:08:26;;;;;;;5.15;1.77;;;;;;;;;;4753425;30;20048;-82
2024/03/10 13:10:57;;;;;;;3.78;1.30;;;;;;;;;;4751830;30;20052;-81
2024/03/10 13:13:29;;;;;;;3.67;2.45;;;;;;;;;;4753698;30;20056;-82
2024/03/10 13:15:59;;;;;;;3.38;0.70;;;;;;;;;;4751623;30;20059;-82
2024/03/10 13:18:29;;;;;;;2.72;0.75;;;;;;;;;;4752733;30;20059;-82
2024/03/10 13:20:59;;;;;;;0.98;0.60;;;;;;;;;;4753563;30;20059;-81
2024/03/10 13:23:29;;;;;;;3.17;0.80;;;;;;;;;;4752903;30;20048;-80
2024/03/10 13:26:00;;;;;;;1.42;0.52;;;;;;;;;;4736637;30;20049;-81
2024/03/10 13:28:31;;;;;;;1.33;0.60;;;;;;;;;;4754976;30;20054;-80
2024/03/10 13:31:02;;;;;;;2.42;0.80;;;;;;;;;;4734084;30;20049;-80
2024/03/10 13:33:32;;;;;;;1.50;0.60;;;;;;;;;;4733700;30;20052;-80
2024/03/10 13:36:04;;;;;;;1.67;1.33;;;;;;;;;;4734229;30;20053;-80
2024/03/10 13:38:47;;;;;;;2.97;0.85;;;;;;;;;;4734360;30;20049;-80
2024/03/10 13:41:17;;;;;;;;;;;;;;;;;;4734258;30;20049;-79
2024/03/10 13:43:47;;;;;;;4.93;3.78;;;;;;;;;;4734216;30;19926;-79
2024/03/10 13:46:17;;;;;;;5.75;3.22;;;;;;;;;;4734898;30;20056;-80
2024/03/10 13:48:49;;;;;;;4.28;0.80;;;;;;;;;;4733904;30;20060;-79
2024/03/10 13:51:20;;;;;;;2.08;1.20;;;;;;;;;;4734304;30;20052;-80
2024/03/10 13:53:51;;;;;;;2.63;1.27;;;;;;;;;;4734109;30;20049;-80
2024/03/10 13:56:22;;;;;;;3.85;2.50;;;;;;;;;;4733916;30;20063;-79
2024/03/10 13:58:51;;;;;;;2.65;1.67;;;;;;;;;;4733190;30;20051;-80
2024/03/10 14:01:22;;;;;;;2.95;2.00;;;;;;;;;;4733839;30;20075;-80
2024/03/10 14:03:55;;;;;;;3.15;1.00;;;;;;;;;;4732643;30;20508;-80
2024/03/10 14:06:27;;;;;;;2.25;1.20;;;;;;;;;;4733627;30;20048;-79
2024/03/10 14:09:04;;;;;;;1.63;0.88;;;;;;;;;;4734667;30;20052;-79
2024/03/10 14:11:34;;;;;;;1.40;0.82;;;;;;;;;;4743876;30;20052;-80
2024/03/10 14:14:06;;;;;;;1.50;1.00;;;;;;;;;;4718285;30;20426;-79
2024/03/10 14:16:37;;;;;;;2.22;1.30;;;;;;;;;;4734732;30;20053;-80
2024/03/10 14:19:07;;;;;;;1.48;0.77;;;;;;;;;;4752957;30;20049;-79
2024/03/10 14:21:38;;;;;;;2.35;1.08;;;;;;;;;;4733054;30;20060;-80
2024/03/10 14:24:12;;;;;;;4.38;2.75;;;;;;;;;;4733120;30;20064;-80
2024/03/10 14:26:45;;;;;;;7.35;3.42;;;;;;;;;;4734150;30;20489;-81
2024/03/10 14:29:16;;;;;;;3.40;1.85;;;;;;;;;;4733877;30;20060;-78
2024/03/10 14:31:47;;;;;;;3.15;1.73;;;;;;;;;;4745741;30;20503;-80
2024/03/10 14:34:18;;;;;;;1.60;1.05;;;;;;;;;;4751408;30;20067;-80
2024/03/10 14:36:50;;;;;;;2.28;1.27;;;;;;;;;;4751663;30;20082;-80
2024/03/10 14:39:21;;;;;;;5.57;3.17;;;;;;;;;;4751071;30;20052;-80
2024/03/10 14:41:51;;;;;;;2.20;1.25;;;;;;;;;;4751234;30;20052;-80
2024/03/10 14:44:22;;;;;;;3.95;1.88;;;;;;;;;;4751048;30;20048;-79
2024/03/10 14:46:52;;;;;;;3.55;1.20;;;;;;;;;;4751222;30;20048;-79
2024/03/10 14:49:22;;;;;;;2.20;1.00;;;;;;;;;;4751159;30;20068;-80
2024/03/10 14:51:52;;;;;;;1.80;1.10;;;;;;;;;;4751206;30;20526;-81
2024/03/10 14:54:23;;;;;;;1.95;1.10;;;;;;;;;;4747074;30;20056;-80
2024/03/10 14:56:53;;;;;;;5.18;2.63;;;;;;;;;;4733418;30;20053;-80
2024/03/10 14:59:24;;;;;;;6.65;2.85;;;;;;;;;;4734055;30;20056;-81
2024/03/10 15:01:54;;;;;;;2.60;1.80;;;;;;;;;;4737077;30;20052;-79
2024/03/10 15:04:24;;;;;;;3.70;2.08;;;;;;;;;;4737064;30;20087;-81
2024/03/10 15:06:55;;;;;;;2.58;1.40;;;;;;;;;;4735513;30;20504;-80
2024/03/10 15:09:31;;;;;;;2.85;1.40;;;;;;;;;;4737044;30;20074;-80
2024/03/10 15:12:04;;;;;;;1.85;1.23;;;;;;;;;;4736843;30;20056;-81
2024/03/10 15:14:36;;;;;;;4.90;2.78;;;;;;;;;;4737111;30;20057;-81
2024/03/10 15:17:07;;;;;;;2.47;1.52;;;;;;;;;;4735116;30;20064;-80
2024/03/10 15:19:38;;;;;;;2.17;1.60;;;;;;;;;;4736563;30;20440;-81
2024/03/10 15:22:08;;;;;;;2.50;1.40;;;;;;;;;;4736889;30;20064;-81
2024/03/10 15:24:38;;;;;;;3.75;2.00;;;;;;;;;;4736324;30;20060;-81
2024/03/10 15:27:08;;;;;;;2.83;1.27;;;;;;;;;;4736605;30;20052;-81
2024/03/10 15:29:38;;;;;;;2.33;1.48;;;;;;;;;;4736608;30;20506;-79